sensor_id;sensor_type;location;lat;lon;timestamp;P1;durP1;ratioP1;P2;durP2;ratioP2
53899;SDS011;40509;32.858;-116.858;2023-03-03T00:01:26;3.83;;;2.10;;
53899;SDS011;40509;32.858;-116.858;2023-03-03T00:04:14;9.50;;;2.30;;
53899;SDS011;40509;32.858;-116.858;2023-03-03T00:06:41;3.13;;;1.67;;
53899;SDS011;40509;32.858;-116.858;2023-03-03T00:09:09;7.43;;;1.98;;
53899;SDS011;40509;32.858;-116.858;2023-03-03T00:11:36;3.33;;;2.47;;
53899;SDS011;40509;32.858;-116.858;2023-03-03T00:14:09;5.03;;;1.70;;
53899;SDS011;40509;32.858;-116.858;2023-03-03T00:16:48;7.32;;;2.00;;
53899;SDS011;40509;32.858;-116.858;2023-03-03T00:19:18;3.38;;;1.38;;
53899;SDS011;40509;32.858;-116.858;2023-03-03T00:21:47;2.08;;;1.40;;
53899;SDS011;40509;32.858;-116.858;2023-03-03T00:26:48;4.47;;;2.05;;
53899;SDS011;40509;32.858;-116.858;2023-03-03T00:29:35;2.72;;;1.70;;
53899;SDS011;40509;32.858;-116.858;2023-03-03T00:34:54;8.80;;;2.30;;
53899;SDS011;40509;32.858;-116.858;2023-03-03T00:42:51;4.57;;;1.25;;
53899;SDS011;40509;32.858;-116.858;2023-03-03T00:48:48;7.03;;;2.05;;
53899;SDS011;40509;32.858;-116.858;2023-03-03T00:50:57;3.50;;;2.03;;
53899;SDS011;40509;32.858;-116.858;2023-03-03T00:53:29;3.92;;;1.50;;
53899;SDS011;40509;32.858;-116.858;2023-03-03T00:55:57;1.95;;;1.35;;
53899;SDS011;40509;32.858;-116.858;2023-03-03T00:58:24;5.47;;;1.73;;
53899;SDS011;40509;32.858;-116.858;2023-03-03T01:00:53;3.63;;;1.52;;
53899;SDS011;40509;32.858;-116.858;2023-03-03T01:03:32;2.03;;;1.45;;
53899;SDS011;40509;32.858;-116.858;2023-03-03T01:05:59;1.95;;;0.80;;
53899;SDS011;40509;32.858;-116.858;2023-03-03T01:08:26;4.25;;;1.45;;
53899;SDS011;40509;32.858;-116.858;2023-03-03T01:10:55;6.15;;;1.42;;
53899;SDS011;40509;32.858;-116.858;2023-03-03T01:13:28;2.40;;;1.50;;
53899;SDS011;40509;32.858;-116.858;2023-03-03T01:15:58;3.85;;;1.23;;
53899;SDS011;40509;32.858;-116.858;2023-03-03T01:18:27;1.42;;;1.13;;
53899;SDS011;40509;32.858;-116.858;2023-03-03T01:20:55;1.83;;;1.10;;
53899;SDS011;40509;32.858;-116.858;2023-03-03T01:23:22;5.03;;;1.27;;
53899;SDS011;40509;32.858;-116.858;2023-03-03T01:25:49;1.88;;;1.70;;
53899;SDS011;40509;32.858;-116.858;2023-03-03T01:28:17;8.13;;;1.90;;
53899;SDS011;40509;32.858;-116.858;2023-03-03T01:30:44;6.32;;;2.58;;
53899;SDS011;40509;32.858;-116.858;2023-03-03T01:33:12;2.45;;;1.42;;
53899;SDS011;40509;32.858;-116.858;2023-03-03T01:35:45;2.90;;;0.98;;
53899;SDS011;40509;32.858;-116.858;2023-03-03T01:38:13;4.10;;;1.48;;
53899;SDS011;40509;32.858;-116.858;2023-03-03T01:40:41;3.15;;;1.92;;
53899;SDS011;40509;32.858;-116.858;2023-03-03T01:43:11;4.47;;;1.25;;
53899;SDS011;40509;32.858;-116.858;2023-03-03T01:45:44;5.70;;;1.55;;
53899;SDS011;40509;32.858;-116.858;2023-03-03T01:48:32;3.15;;;1.25;;
53899;SDS011;40509;32.858;-116.858;2023-03-03T01:51:18;5.55;;;1.90;;
53899;SDS011;40509;32.858;-116.858;2023-03-03T01:53:50;3.83;;;1.38;;
53899;SDS011;40509;32.858;-116.858;2023-03-03T01:56:22;14.88;;;1.98;;
53899;SDS011;40509;32.858;-116.858;2023-03-03T01:58:51;11.82;;;1.52;;
53899;SDS011;40509;32.858;-116.858;2023-03-03T02:01:23;14.02;;;1.77;;
53899;SDS011;40509;32.858;-116.858;2023-03-03T02:03:54;11.13;;;1.58;;
53899;SDS011;40509;32.858;-116.858;2023-03-03T02:06:23;4.35;;;1.40;;
53899;SDS011;40509;32.858;-116.858;2023-03-03T02:11:44;2.88;;;1.50;;
53899;SDS011;40509;32.858;-116.858;2023-03-03T02:14:12;4.13;;;1.55;;
53899;SDS011;40509;32.858;-116.858;2023-03-03T02:16:42;3.63;;;1.60;;
53899;SDS011;40509;32.858;-116.858;2023-03-03T02:19:22;2.28;;;1.05;;
53899;SDS011;40509;32.858;-116.858;2023-03-03T02:21:50;3.45;;;0.90;;
53899;SDS011;40509;32.858;-116.858;2023-03-03T02:26:53;1.40;;;0.93;;
53899;SDS011;40509;32.858;-116.858;2023-03-03T02:29:22;1.95;;;1.25;;
53899;SDS011;40509;32.858;-116.858;2023-03-03T02:31:49;5.30;;;1.40;;
53899;SDS011;40509;32.858;-116.858;2023-03-03T02:34:16;3.38;;;0.90;;
53899;SDS011;40509;32.858;-116.858;2023-03-03T02:36:43;2.72;;;1.40;;
53899;SDS011;40509;32.858;-116.858;2023-03-03T02:39:23;2.28;;;1.00;;
53899;SDS011;40509;32.858;-116.858;2023-03-03T02:41:59;10.35;;;2.13;;
53899;SDS011;40509;32.858;-116.858;2023-03-03T02:44:35;8.32;;;1.73;;
53899;SDS011;40509;32.858;-116.858;2023-03-03T02:47:02;1.50;;;1.40;;
53899;SDS011;40509;32.858;-116.858;2023-03-03T02:49:31;7.63;;;1.48;;
53899;SDS011;40509;32.858;-116.858;2023-03-03T02:52:00;3.72;;;1.15;;
53899;SDS011;40509;32.858;-116.858;2023-03-03T02:54:29;4.32;;;1.42;;
53899;SDS011;40509;32.858;-116.858;2023-03-03T02:56:58;2.33;;;1.15;;
53899;SDS011;40509;32.858;-116.858;2023-03-03T02:59:26;2.60;;;1.00;;
53899;SDS011;40509;32.858;-116.858;2023-03-03T03:01:55;1.98;;;1.40;;
53899;SDS011;40509;32.858;-116.858;2023-03-03T03:04:24;3.17;;;1.20;;
53899;SDS011;40509;32.858;-116.858;2023-03-03T03:06:53;1.38;;;1.17;;
53899;SDS011;40509;32.858;-116.858;2023-03-03T03:09:22;2.97;;;1.88;;
53899;SDS011;40509;32.858;-116.858;2023-03-03T03:11:52;2.58;;;0.75;;
53899;SDS011;40509;32.858;-116.858;2023-03-03T03:14:23;2.22;;;1.20;;
53899;SDS011;40509;32.858;-116.858;2023-03-03T03:16:51;4.32;;;1.65;;
53899;SDS011;40509;32.858;-116.858;2023-03-03T03:19:18;2.30;;;1.70;;
53899;SDS011;40509;32.858;-116.858;2023-03-03T03:21:46;5.45;;;1.80;;
53899;SDS011;40509;32.858;-116.858;2023-03-03T03:24:14;2.97;;;0.70;;
53899;SDS011;40509;32.858;-116.858;2023-03-03T03:26:47;2.00;;;1.10;;
53899;SDS011;40509;32.858;-116.858;2023-03-03T03:29:14;1.55;;;0.80;;
53899;SDS011;40509;32.858;-116.858;2023-03-03T03:31:42;1.30;;;0.85;;
53899;SDS011;40509;32.858;-116.858;2023-03-03T03:34:09;2.35;;;1.17;;
53899;SDS011;40509;32.858;-116.858;2023-03-03T03:36:36;1.58;;;0.90;;
53899;SDS011;40509;32.858;-116.858;2023-03-03T03:39:05;5.68;;;1.73;;
53899;SDS011;40509;32.858;-116.858;2023-03-03T03:41:35;2.65;;;1.42;;
53899;SDS011;40509;32.858;-116.858;2023-03-03T03:44:02;8.75;;;2.05;;
53899;SDS011;40509;32.858;-116.858;2023-03-03T03:46:30;15.38;;;3.20;;
53899;SDS011;40509;32.858;-116.858;2023-03-03T03:48:57;8.27;;;2.42;;
53899;SDS011;40509;32.858;-116.858;2023-03-03T03:51:25;13.60;;;2.85;;
53899;SDS011;40509;32.858;-116.858;2023-03-03T03:53:52;8.93;;;2.28;;
53899;SDS011;40509;32.858;-116.858;2023-03-03T03:56:19;10.73;;;2.45;;
53899;SDS011;40509;32.858;-116.858;2023-03-03T03:58:50;6.55;;;1.92;;
53899;SDS011;40509;32.858;-116.858;2023-03-03T04:01:17;6.65;;;1.50;;
53899;SDS011;40509;32.858;-116.858;2023-03-03T04:03:48;5.78;;;1.67;;
53899;SDS011;40509;32.858;-116.858;2023-03-03T04:06:18;5.60;;;1.98;;
53899;SDS011;40509;32.858;-116.858;2023-03-03T04:08:46;5.18;;;2.97;;
53899;SDS011;40509;32.858;-116.858;2023-03-03T04:11:15;15.13;;;2.55;;
53899;SDS011;40509;32.858;-116.858;2023-03-03T04:13:43;4.30;;;1.92;;
53899;SDS011;40509;32.858;-116.858;2023-03-03T04:16:11;3.65;;;1.48;;
53899;SDS011;40509;32.858;-116.858;2023-03-03T04:18:41;3.92;;;1.35;;
53899;SDS011;40509;32.858;-116.858;2023-03-03T04:21:12;4.78;;;1.80;;
53899;SDS011;40509;32.858;-116.858;2023-03-03T04:23:41;5.93;;;1.60;;
53899;SDS011;40509;32.858;-116.858;2023-03-03T04:26:09;8.25;;;2.08;;
53899;SDS011;40509;32.858;-116.858;2023-03-03T04:28:37;2.80;;;1.52;;
53899;SDS011;40509;32.858;-116.858;2023-03-03T04:31:04;4.63;;;1.50;;
53899;SDS011;40509;32.858;-116.858;2023-03-03T04:33:32;1.90;;;1.48;;
53899;SDS011;40509;32.858;-116.858;2023-03-03T04:36:02;8.18;;;1.92;;
53899;SDS011;40509;32.858;-116.858;2023-03-03T04:38:30;3.92;;;1.92;;
53899;SDS011;40509;32.858;-116.858;2023-03-03T04:40:57;2.95;;;1.40;;
53899;SDS011;40509;32.858;-116.858;2023-03-03T04:43:28;4.07;;;1.80;;
53899;SDS011;40509;32.858;-116.858;2023-03-03T04:45:56;2.55;;;1.42;;
53899;SDS011;40509;32.858;-116.858;2023-03-03T04:48:23;7.55;;;1.92;;
53899;SDS011;40509;32.858;-116.858;2023-03-03T04:50:51;4.72;;;1.88;;
53899;SDS011;40509;32.858;-116.858;2023-03-03T04:53:19;1.35;;;1.10;;
53899;SDS011;40509;32.858;-116.858;2023-03-03T04:55:50;5.32;;;1.27;;
53899;SDS011;40509;32.858;-116.858;2023-03-03T04:58:18;2.53;;;1.42;;
53899;SDS011;40509;32.858;-116.858;2023-03-03T05:00:51;4.55;;;1.20;;
53899;SDS011;40509;32.858;-116.858;2023-03-03T05:03:20;7.10;;;1.42;;
53899;SDS011;40509;32.858;-116.858;2023-03-03T05:05:49;7.88;;;1.33;;
53899;SDS011;40509;32.858;-116.858;2023-03-03T05:08:16;2.90;;;1.20;;
53899;SDS011;40509;32.858;-116.858;2023-03-03T05:10:43;0.90;;;0.80;;
53899;SDS011;40509;32.858;-116.858;2023-03-03T05:13:13;3.83;;;1.73;;
53899;SDS011;40509;32.858;-116.858;2023-03-03T05:15:42;4.22;;;1.17;;
53899;SDS011;40509;32.858;-116.858;2023-03-03T05:18:09;3.60;;;1.65;;
53899;SDS011;40509;32.858;-116.858;2023-03-03T05:20:38;1.52;;;1.17;;
53899;SDS011;40509;32.858;-116.858;2023-03-03T05:23:07;3.60;;;1.55;;
53899;SDS011;40509;32.858;-116.858;2023-03-03T05:25:34;2.00;;;1.13;;
53899;SDS011;40509;32.858;-116.858;2023-03-03T05:28:02;1.65;;;0.85;;
53899;SDS011;40509;32.858;-116.858;2023-03-03T05:30:29;2.42;;;1.58;;
53899;SDS011;40509;32.858;-116.858;2023-03-03T05:32:57;1.90;;;1.33;;
53899;SDS011;40509;32.858;-116.858;2023-03-03T05:35:24;7.50;;;1.95;;
53899;SDS011;40509;32.858;-116.858;2023-03-03T05:37:53;2.90;;;1.42;;
53899;SDS011;40509;32.858;-116.858;2023-03-03T05:40:20;2.33;;;1.55;;
53899;SDS011;40509;32.858;-116.858;2023-03-03T05:42:48;4.90;;;1.02;;
53899;SDS011;40509;32.858;-116.858;2023-03-03T05:45:16;3.22;;;1.45;;
53899;SDS011;40509;32.858;-116.858;2023-03-03T05:47:47;8.43;;;1.42;;
53899;SDS011;40509;32.858;-116.858;2023-03-03T05:50:14;6.03;;;1.08;;
53899;SDS011;40509;32.858;-116.858;2023-03-03T05:52:42;2.67;;;1.70;;
53899;SDS011;40509;32.858;-116.858;2023-03-03T05:55:10;3.85;;;1.40;;
53899;SDS011;40509;32.858;-116.858;2023-03-03T05:57:37;2.25;;;0.82;;
53899;SDS011;40509;32.858;-116.858;2023-03-03T06:00:05;3.10;;;1.08;;
53899;SDS011;40509;32.858;-116.858;2023-03-03T06:02:42;1.08;;;0.75;;
53899;SDS011;40509;32.858;-116.858;2023-03-03T06:05:09;2.38;;;1.05;;
53899;SDS011;40509;32.858;-116.858;2023-03-03T06:07:37;2.75;;;1.13;;
53899;SDS011;40509;32.858;-116.858;2023-03-03T06:10:05;3.88;;;1.10;;
53899;SDS011;40509;32.858;-116.858;2023-03-03T06:12:36;1.20;;;1.00;;
53899;SDS011;40509;32.858;-116.858;2023-03-03T06:15:05;6.32;;;0.95;;
53899;SDS011;40509;32.858;-116.858;2023-03-03T06:17:32;1.55;;;1.02;;
53899;SDS011;40509;32.858;-116.858;2023-03-03T06:20:00;1.25;;;0.85;;
53899;SDS011;40509;32.858;-116.858;2023-03-03T06:22:29;2.83;;;1.90;;
53899;SDS011;40509;32.858;-116.858;2023-03-03T06:24:56;4.93;;;1.40;;
53899;SDS011;40509;32.858;-116.858;2023-03-03T06:27:24;4.13;;;0.88;;
53899;SDS011;40509;32.858;-116.858;2023-03-03T06:29:51;3.75;;;1.17;;
53899;SDS011;40509;32.858;-116.858;2023-03-03T06:32:18;2.72;;;1.25;;
53899;SDS011;40509;32.858;-116.858;2023-03-03T06:34:46;1.33;;;0.90;;
53899;SDS011;40509;32.858;-116.858;2023-03-03T06:37:13;1.85;;;1.13;;
53899;SDS011;40509;32.858;-116.858;2023-03-03T06:39:42;1.15;;;0.90;;
53899;SDS011;40509;32.858;-116.858;2023-03-03T06:42:09;1.80;;;1.30;;
53899;SDS011;40509;32.858;-116.858;2023-03-03T06:44:37;1.27;;;0.68;;
53899;SDS011;40509;32.858;-116.858;2023-03-03T06:47:04;2.67;;;1.77;;
53899;SDS011;40509;32.858;-116.858;2023-03-03T06:49:31;1.48;;;1.23;;
53899;SDS011;40509;32.858;-116.858;2023-03-03T06:51:58;2.53;;;0.80;;
53899;SDS011;40509;32.858;-116.858;2023-03-03T06:54:31;1.63;;;1.30;;
53899;SDS011;40509;32.858;-116.858;2023-03-03T06:57:14;6.88;;;1.15;;
53899;SDS011;40509;32.858;-116.858;2023-03-03T06:59:43;2.15;;;1.08;;
53899;SDS011;40509;32.858;-116.858;2023-03-03T07:02:15;1.73;;;0.85;;
53899;SDS011;40509;32.858;-116.858;2023-03-03T07:04:43;2.22;;;1.35;;
53899;SDS011;40509;32.858;-116.858;2023-03-03T07:07:17;2.58;;;0.70;;
53899;SDS011;40509;32.858;-116.858;2023-03-03T07:09:51;2.30;;;1.05;;
53899;SDS011;40509;32.858;-116.858;2023-03-03T07:12:22;3.90;;;1.02;;
53899;SDS011;40509;32.858;-116.858;2023-03-03T07:14:55;1.38;;;0.85;;
53899;SDS011;40509;32.858;-116.858;2023-03-03T07:17:38;1.17;;;0.68;;
53899;SDS011;40509;32.858;-116.858;2023-03-03T07:20:17;1.27;;;0.85;;
53899;SDS011;40509;32.858;-116.858;2023-03-03T07:22:49;1.67;;;0.82;;
53899;SDS011;40509;32.858;-116.858;2023-03-03T07:25:35;1.90;;;0.85;;
53899;SDS011;40509;32.858;-116.858;2023-03-03T07:28:25;1.33;;;0.93;;
53899;SDS011;40509;32.858;-116.858;2023-03-03T07:30:52;1.08;;;0.90;;
53899;SDS011;40509;32.858;-116.858;2023-03-03T07:33:24;1.33;;;0.80;;
53899;SDS011;40509;32.858;-116.858;2023-03-03T07:35:54;1.65;;;0.88;;
53899;SDS011;40509;32.858;-116.858;2023-03-03T07:38:36;2.47;;;0.65;;
53899;SDS011;40509;32.858;-116.858;2023-03-03T07:41:16;1.17;;;0.60;;
53899;SDS011;40509;32.858;-116.858;2023-03-03T07:43:52;1.63;;;1.10;;
53899;SDS011;40509;32.858;-116.858;2023-03-03T07:46:28;1.35;;;0.77;;
53899;SDS011;40509;32.858;-116.858;2023-03-03T07:49:07;2.00;;;0.67;;
53899;SDS011;40509;32.858;-116.858;2023-03-03T07:51:47;0.80;;;0.70;;
53899;SDS011;40509;32.858;-116.858;2023-03-03T07:54:27;3.05;;;1.00;;
53899;SDS011;40509;32.858;-116.858;2023-03-03T07:57:21;3.33;;;0.70;;
53899;SDS011;40509;32.858;-116.858;2023-03-03T07:59:54;0.95;;;0.80;;
53899;SDS011;40509;32.858;-116.858;2023-03-03T08:02:59;2.20;;;1.17;;
53899;SDS011;40509;32.858;-116.858;2023-03-03T08:05:33;3.53;;;0.70;;
53899;SDS011;40509;32.858;-116.858;2023-03-03T08:10:48;1.27;;;0.80;;
53899;SDS011;40509;32.858;-116.858;2023-03-03T08:13:20;4.18;;;1.10;;
53899;SDS011;40509;32.858;-116.858;2023-03-03T08:15:49;0.85;;;0.75;;
53899;SDS011;40509;32.858;-116.858;2023-03-03T08:18:27;1.20;;;1.10;;
53899;SDS011;40509;32.858;-116.858;2023-03-03T08:21:10;5.38;;;1.00;;
53899;SDS011;40509;32.858;-116.858;2023-03-03T08:23:40;1.48;;;0.68;;
53899;SDS011;40509;32.858;-116.858;2023-03-03T08:26:08;0.82;;;0.50;;
53899;SDS011;40509;32.858;-116.858;2023-03-03T08:28:38;1.73;;;0.95;;
53899;SDS011;40509;32.858;-116.858;2023-03-03T08:31:05;0.52;;;0.52;;
53899;SDS011;40509;32.858;-116.858;2023-03-03T08:33:32;0.80;;;0.63;;
53899;SDS011;40509;32.858;-116.858;2023-03-03T08:35:59;3.30;;;0.77;;
53899;SDS011;40509;32.858;-116.858;2023-03-03T08:38:27;1.15;;;0.73;;
53899;SDS011;40509;32.858;-116.858;2023-03-03T08:40:54;0.60;;;0.60;;
53899;SDS011;40509;32.858;-116.858;2023-03-03T08:43:21;1.92;;;1.00;;
53899;SDS011;40509;32.858;-116.858;2023-03-03T08:45:50;1.08;;;0.85;;
53899;SDS011;40509;32.858;-116.858;2023-03-03T08:48:19;3.45;;;1.42;;
53899;SDS011;40509;32.858;-116.858;2023-03-03T08:50:48;1.55;;;0.55;;
53899;SDS011;40509;32.858;-116.858;2023-03-03T08:53:15;1.50;;;0.70;;
53899;SDS011;40509;32.858;-116.858;2023-03-03T08:55:43;1.05;;;0.63;;
53899;SDS011;40509;32.858;-116.858;2023-03-03T08:58:11;0.90;;;0.73;;
53899;SDS011;40509;32.858;-116.858;2023-03-03T09:00:38;1.83;;;1.20;;
53899;SDS011;40509;32.858;-116.858;2023-03-03T09:03:07;1.27;;;0.60;;
53899;SDS011;40509;32.858;-116.858;2023-03-03T09:05:35;1.13;;;0.73;;
53899;SDS011;40509;32.858;-116.858;2023-03-03T09:08:05;0.73;;;0.70;;
53899;SDS011;40509;32.858;-116.858;2023-03-03T09:10:33;2.90;;;0.90;;
53899;SDS011;40509;32.858;-116.858;2023-03-03T09:13:10;6.03;;;0.82;;
53899;SDS011;40509;32.858;-116.858;2023-03-03T09:15:41;2.50;;;0.80;;
53899;SDS011;40509;32.858;-116.858;2023-03-03T09:18:19;2.45;;;0.45;;
53899;SDS011;40509;32.858;-116.858;2023-03-03T09:20:51;1.40;;;0.88;;
53899;SDS011;40509;32.858;-116.858;2023-03-03T09:26:20;1.33;;;0.90;;
53899;SDS011;40509;32.858;-116.858;2023-03-03T09:28:54;1.50;;;0.85;;
53899;SDS011;40509;32.858;-116.858;2023-03-03T09:31:34;1.17;;;0.80;;
53899;SDS011;40509;32.858;-116.858;2023-03-03T09:34:39;1.88;;;0.80;;
53899;SDS011;40509;32.858;-116.858;2023-03-03T09:37:21;1.30;;;0.80;;
53899;SDS011;40509;32.858;-116.858;2023-03-03T09:39:50;1.55;;;0.70;;
53899;SDS011;40509;32.858;-116.858;2023-03-03T09:42:23;0.85;;;0.85;;
53899;SDS011;40509;32.858;-116.858;2023-03-03T09:45:07;2.42;;;0.70;;
53899;SDS011;40509;32.858;-116.858;2023-03-03T09:50:38;0.98;;;0.60;;
53899;SDS011;40509;32.858;-116.858;2023-03-03T09:56:08;0.65;;;0.45;;
53899;SDS011;40509;32.858;-116.858;2023-03-03T10:01:37;1.35;;;0.75;;
53899;SDS011;40509;32.858;-116.858;2023-03-03T10:07:21;2.58;;;1.15;;
53899;SDS011;40509;32.858;-116.858;2023-03-03T10:15:29;0.60;;;0.47;;
53899;SDS011;40509;32.858;-116.858;2023-03-03T10:23:45;1.48;;;1.38;;
53899;SDS011;40509;32.858;-116.858;2023-03-03T10:31:55;1.50;;;0.90;;
53899;SDS011;40509;32.858;-116.858;2023-03-03T10:45:44;0.65;;;0.52;;
53899;SDS011;40509;32.858;-116.858;2023-03-03T10:48:18;2.38;;;0.90;;
53899;SDS011;40509;32.858;-116.858;2023-03-03T10:50:58;1.58;;;0.90;;
53899;SDS011;40509;32.858;-116.858;2023-03-03T11:01:44;2.42;;;0.68;;
53899;SDS011;40509;32.858;-116.858;2023-03-03T11:09:42;1.55;;;0.70;;
53899;SDS011;40509;32.858;-116.858;2023-03-03T11:20:41;0.95;;;0.52;;
53899;SDS011;40509;32.858;-116.858;2023-03-03T11:26:27;1.02;;;0.77;;
53899;SDS011;40509;32.858;-116.858;2023-03-03T11:32:15;0.63;;;0.63;;
53899;SDS011;40509;32.858;-116.858;2023-03-03T11:37:44;0.40;;;0.40;;
53899;SDS011;40509;32.858;-116.858;2023-03-03T11:40:18;0.52;;;0.50;;
53899;SDS011;40509;32.858;-116.858;2023-03-03T11:42:53;0.93;;;0.50;;
53899;SDS011;40509;32.858;-116.858;2023-03-03T11:48:13;0.73;;;0.63;;
53899;SDS011;40509;32.858;-116.858;2023-03-03T11:53:48;0.30;;;0.30;;
53899;SDS011;40509;32.858;-116.858;2023-03-03T11:56:18;0.90;;;0.65;;
53899;SDS011;40509;32.858;-116.858;2023-03-03T11:59:04;1.02;;;0.75;;
53899;SDS011;40509;32.858;-116.858;2023-03-03T12:01:52;1.02;;;0.65;;
53899;SDS011;40509;32.858;-116.858;2023-03-03T12:04:33;0.55;;;0.55;;
53899;SDS011;40509;32.858;-116.858;2023-03-03T12:09:43;1.63;;;0.60;;
53899;SDS011;40509;32.858;-116.858;2023-03-03T12:12:30;1.02;;;0.57;;
53899;SDS011;40509;32.858;-116.858;2023-03-03T12:15:04;0.40;;;0.40;;
53899;SDS011;40509;32.858;-116.858;2023-03-03T12:20:24;0.60;;;0.43;;
53899;SDS011;40509;32.858;-116.858;2023-03-03T12:23:58;0.70;;;0.40;;
53899;SDS011;40509;32.858;-116.858;2023-03-03T12:26:18;0.80;;;0.80;;
53899;SDS011;40509;32.858;-116.858;2023-03-03T12:29:12;3.53;;;0.50;;
53899;SDS011;40509;32.858;-116.858;2023-03-03T12:32:03;1.13;;;0.57;;
53899;SDS011;40509;32.858;-116.858;2023-03-03T12:37:46;0.80;;;0.65;;
53899;SDS011;40509;32.858;-116.858;2023-03-03T12:40:35;1.35;;;0.75;;
53899;SDS011;40509;32.858;-116.858;2023-03-03T12:43:15;2.95;;;0.90;;
53899;SDS011;40509;32.858;-116.858;2023-03-03T12:48:40;0.73;;;0.50;;
53899;SDS011;40509;32.858;-116.858;2023-03-03T12:56:37;0.93;;;0.77;;
53899;SDS011;40509;32.858;-116.858;2023-03-03T12:59:33;0.57;;;0.57;;
53899;SDS011;40509;32.858;-116.858;2023-03-03T13:05:23;0.63;;;0.63;;
53899;SDS011;40509;32.858;-116.858;2023-03-03T13:10:47;0.98;;;0.55;;
53899;SDS011;40509;32.858;-116.858;2023-03-03T13:13:27;1.25;;;0.70;;
53899;SDS011;40509;32.858;-116.858;2023-03-03T13:16:04;0.35;;;0.30;;
53899;SDS011;40509;32.858;-116.858;2023-03-03T13:18:54;0.60;;;0.43;;
53899;SDS011;40509;32.858;-116.858;2023-03-03T13:26:43;0.75;;;0.75;;
53899;SDS011;40509;32.858;-116.858;2023-03-03T13:32:02;0.90;;;0.57;;
53899;SDS011;40509;32.858;-116.858;2023-03-03T13:37:44;1.23;;;0.80;;
53899;SDS011;40509;32.858;-116.858;2023-03-03T13:40:16;1.65;;;0.63;;
53899;SDS011;40509;32.858;-116.858;2023-03-03T13:50:39;0.40;;;0.28;;
53899;SDS011;40509;32.858;-116.858;2023-03-03T13:53:36;1.05;;;0.47;;
53899;SDS011;40509;32.858;-116.858;2023-03-03T14:01:47;0.50;;;0.50;;
53899;SDS011;40509;32.858;-116.858;2023-03-03T14:07:21;0.47;;;0.43;;
53899;SDS011;40509;32.858;-116.858;2023-03-03T14:10:07;0.65;;;0.57;;
53899;SDS011;40509;32.858;-116.858;2023-03-03T14:12:46;1.15;;;0.65;;
53899;SDS011;40509;32.858;-116.858;2023-03-03T14:24:31;0.73;;;0.47;;
53899;SDS011;40509;32.858;-116.858;2023-03-03T14:27:34;0.63;;;0.35;;
53899;SDS011;40509;32.858;-116.858;2023-03-03T14:35:39;1.00;;;0.47;;
53899;SDS011;40509;32.858;-116.858;2023-03-03T14:40:47;1.65;;;0.40;;
53899;SDS011;40509;32.858;-116.858;2023-03-03T14:46:37;0.98;;;0.55;;
53899;SDS011;40509;32.858;-116.858;2023-03-03T14:49:14;0.90;;;0.52;;
53899;SDS011;40509;32.858;-116.858;2023-03-03T14:52:00;8.38;;;1.63;;
53899;SDS011;40509;32.858;-116.858;2023-03-03T14:54:44;9.27;;;1.10;;
53899;SDS011;40509;32.858;-116.858;2023-03-03T15:02:43;0.57;;;0.30;;
53899;SDS011;40509;32.858;-116.858;2023-03-03T15:05:22;1.55;;;0.50;;
53899;SDS011;40509;32.858;-116.858;2023-03-03T15:10:35;12.57;;;0.95;;
53899;SDS011;40509;32.858;-116.858;2023-03-03T15:15:49;1.75;;;0.88;;
53899;SDS011;40509;32.858;-116.858;2023-03-03T15:18:30;0.40;;;0.40;;
53899;SDS011;40509;32.858;-116.858;2023-03-03T15:21:08;4.28;;;0.52;;
53899;SDS011;40509;32.858;-116.858;2023-03-03T15:23:55;0.73;;;0.70;;
53899;SDS011;40509;32.858;-116.858;2023-03-03T15:32:38;1.33;;;0.80;;
53899;SDS011;40509;32.858;-116.858;2023-03-03T15:38:33;1.02;;;0.40;;
53899;SDS011;40509;32.858;-116.858;2023-03-03T15:47:05;0.35;;;0.30;;
53899;SDS011;40509;32.858;-116.858;2023-03-03T15:49:53;0.45;;;0.28;;
53899;SDS011;40509;32.858;-116.858;2023-03-03T16:04:43;0.70;;;0.50;;
53899;SDS011;40509;32.858;-116.858;2023-03-03T16:07:34;0.85;;;0.60;;
53899;SDS011;40509;32.858;-116.858;2023-03-03T16:18:22;0.75;;;0.50;;
53899;SDS011;40509;32.858;-116.858;2023-03-03T16:24:25;0.55;;;0.55;;
53899;SDS011;40509;32.858;-116.858;2023-03-03T16:30:05;0.43;;;0.43;;
53899;SDS011;40509;32.858;-116.858;2023-03-03T16:32:51;0.95;;;0.63;;
53899;SDS011;40509;32.858;-116.858;2023-03-03T16:35:30;1.02;;;0.75;;
53899;SDS011;40509;32.858;-116.858;2023-03-03T16:38:17;0.68;;;0.40;;
53899;SDS011;40509;32.858;-116.858;2023-03-03T16:41:25;1.90;;;0.75;;
53899;SDS011;40509;32.858;-116.858;2023-03-03T16:46:47;1.25;;;0.60;;
53899;SDS011;40509;32.858;-116.858;2023-03-03T16:52:16;0.80;;;0.47;;
53899;SDS011;40509;32.858;-116.858;2023-03-03T16:54:54;1.23;;;0.60;;
53899;SDS011;40509;32.858;-116.858;2023-03-03T17:00:28;2.00;;;0.77;;
53899;SDS011;40509;32.858;-116.858;2023-03-03T17:03:23;11.88;;;1.95;;
53899;SDS011;40509;32.858;-116.858;2023-03-03T17:06:12;1.58;;;1.08;;
53899;SDS011;40509;32.858;-116.858;2023-03-03T17:08:51;0.50;;;0.50;;
53899;SDS011;40509;32.858;-116.858;2023-03-03T17:16:59;0.52;;;0.50;;
53899;SDS011;40509;32.858;-116.858;2023-03-03T17:22:35;4.28;;;0.40;;
53899;SDS011;40509;32.858;-116.858;2023-03-03T17:27:43;2.03;;;0.85;;
53899;SDS011;40509;32.858;-116.858;2023-03-03T17:36:28;1.05;;;0.60;;
53899;SDS011;40509;32.858;-116.858;2023-03-03T17:39:10;2.33;;;0.93;;
53899;SDS011;40509;32.858;-116.858;2023-03-03T17:42:11;3.10;;;0.70;;
53899;SDS011;40509;32.858;-116.858;2023-03-03T17:44:54;0.43;;;0.40;;
53899;SDS011;40509;32.858;-116.858;2023-03-03T17:55:50;0.43;;;0.43;;
53899;SDS011;40509;32.858;-116.858;2023-03-03T17:58:33;2.00;;;0.35;;
53899;SDS011;40509;32.858;-116.858;2023-03-03T18:01:46;0.77;;;0.40;;
53899;SDS011;40509;32.858;-116.858;2023-03-03T18:07:50;0.50;;;0.40;;
53899;SDS011;40509;32.858;-116.858;2023-03-03T18:10:43;2.72;;;0.93;;
53899;SDS011;40509;32.858;-116.858;2023-03-03T18:13:36;0.70;;;0.35;;
53899;SDS011;40509;32.858;-116.858;2023-03-03T18:18:54;0.82;;;0.60;;
53899;SDS011;40509;32.858;-116.858;2023-03-03T18:24:25;2.53;;;0.40;;
53899;SDS011;40509;32.858;-116.858;2023-03-03T18:35:26;0.60;;;0.35;;
53899;SDS011;40509;32.858;-116.858;2023-03-03T18:37:56;0.70;;;0.50;;
53899;SDS011;40509;32.858;-116.858;2023-03-03T18:40:58;0.95;;;0.70;;
53899;SDS011;40509;32.858;-116.858;2023-03-03T19:04:51;4.18;;;0.63;;
53899;SDS011;40509;32.858;-116.858;2023-03-03T19:08:15;1.67;;;0.40;;
53899;SDS011;40509;32.858;-116.858;2023-03-03T19:12:49;1.27;;;0.82;;
53899;SDS011;40509;32.858;-116.858;2023-03-03T19:18:04;0.40;;;0.40;;
53899;SDS011;40509;32.858;-116.858;2023-03-03T19:20:57;1.75;;;0.43;;
53899;SDS011;40509;32.858;-116.858;2023-03-03T19:34:25;0.50;;;0.43;;
53899;SDS011;40509;32.858;-116.858;2023-03-03T19:45:24;1.02;;;0.30;;
53899;SDS011;40509;32.858;-116.858;2023-03-03T19:50:48;0.82;;;0.40;;
53899;SDS011;40509;32.858;-116.858;2023-03-03T19:59:21;2.80;;;0.77;;
53899;SDS011;40509;32.858;-116.858;2023-03-03T20:02:00;4.75;;;0.55;;
53899;SDS011;40509;32.858;-116.858;2023-03-03T20:08:00;1.40;;;0.68;;
53899;SDS011;40509;32.858;-116.858;2023-03-03T20:10:46;0.55;;;0.55;;
53899;SDS011;40509;32.858;-116.858;2023-03-03T20:18:39;0.30;;;0.30;;
53899;SDS011;40509;32.858;-116.858;2023-03-03T20:24:09;0.93;;;0.60;;
53899;SDS011;40509;32.858;-116.858;2023-03-03T20:29:54;0.60;;;0.52;;
53899;SDS011;40509;32.858;-116.858;2023-03-03T20:35:08;2.15;;;0.85;;
53899;SDS011;40509;32.858;-116.858;2023-03-03T20:46:29;0.68;;;0.50;;